sensor_id;sensor_type;location;lat;lon;timestamp;P1;durP1;ratioP1;P2;durP2;ratioP2
70322;SDS011;57735;56.264;43.898;2023-05-10T00:00:22;45.08;;;16.00;;
70322;SDS011;57735;56.264;43.898;2023-05-10T00:03:01;47.70;;;16.25;;
70322;SDS011;57735;56.264;43.898;2023-05-10T00:05:32;49.75;;;16.55;;
70322;SDS011;57735;56.264;43.898;2023-05-10T00:08:02;45.88;;;15.32;;
70322;SDS011;57735;56.264;43.898;2023-05-10T00:10:33;42.55;;;15.20;;
70322;SDS011;57735;56.264;43.898;2023-05-10T00:13:04;46.38;;;15.70;;
70322;SDS011;57735;56.264;43.898;2023-05-10T00:15:35;51.00;;;15.00;;
70322;SDS011;57735;56.264;43.898;2023-05-10T00:18:05;48.50;;;15.70;;
70322;SDS011;57735;56.264;43.898;2023-05-10T00:20:36;48.20;;;16.25;;
70322;SDS011;57735;56.264;43.898;2023-05-10T00:23:07;44.83;;;15.45;;
70322;SDS011;57735;56.264;43.898;2023-05-10T00:25:38;44.70;;;15.18;;
70322;SDS011;57735;56.264;43.898;2023-05-10T00:28:08;48.75;;;16.38;;
70322;SDS011;57735;56.264;43.898;2023-05-10T00:30:39;42.92;;;14.30;;
70322;SDS011;57735;56.264;43.898;2023-05-10T00:33:10;37.58;;;15.27;;
70322;SDS011;57735;56.264;43.898;2023-05-10T00:35:43;41.22;;;14.57;;
70322;SDS011;57735;56.264;43.898;2023-05-10T00:38:13;45.35;;;14.77;;
70322;SDS011;57735;56.264;43.898;2023-05-10T00:40:47;47.83;;;15.10;;
70322;SDS011;57735;56.264;43.898;2023-05-10T00:43:17;41.75;;;14.63;;
70322;SDS011;57735;56.264;43.898;2023-05-10T00:45:48;48.22;;;16.63;;
70322;SDS011;57735;56.264;43.898;2023-05-10T00:48:19;46.10;;;16.08;;
70322;SDS011;57735;56.264;43.898;2023-05-10T00:50:51;43.15;;;16.17;;
70322;SDS011;57735;56.264;43.898;2023-05-10T00:53:22;57.80;;;16.00;;
70322;SDS011;57735;56.264;43.898;2023-05-10T00:55:55;40.75;;;15.85;;
70322;SDS011;57735;56.264;43.898;2023-05-10T00:58:27;54.25;;;15.98;;
70322;SDS011;57735;56.264;43.898;2023-05-10T01:00:58;39.20;;;14.55;;
70322;SDS011;57735;56.264;43.898;2023-05-10T01:03:30;41.55;;;15.57;;
70322;SDS011;57735;56.264;43.898;2023-05-10T01:06:02;50.67;;;15.60;;
70322;SDS011;57735;56.264;43.898;2023-05-10T01:08:33;40.72;;;16.20;;
70322;SDS011;57735;56.264;43.898;2023-05-10T01:11:04;39.58;;;15.20;;
70322;SDS011;57735;56.264;43.898;2023-05-10T01:13:38;42.97;;;15.93;;
70322;SDS011;57735;56.264;43.898;2023-05-10T01:16:11;44.35;;;15.10;;
70322;SDS011;57735;56.264;43.898;2023-05-10T01:18:42;37.17;;;15.13;;
70322;SDS011;57735;56.264;43.898;2023-05-10T01:21:17;43.03;;;14.60;;
70322;SDS011;57735;56.264;43.898;2023-05-10T01:24:16;50.53;;;14.90;;
70322;SDS011;57735;56.264;43.898;2023-05-10T01:33:26;37.90;;;13.75;;
70322;SDS011;57735;56.264;43.898;2023-05-10T01:38:52;41.47;;;15.27;;
70322;SDS011;57735;56.264;43.898;2023-05-10T01:50:03;37.72;;;14.85;;
70322;SDS011;57735;56.264;43.898;2023-05-10T01:52:38;46.63;;;13.93;;
70322;SDS011;57735;56.264;43.898;2023-05-10T01:55:14;39.15;;;15.07;;
70322;SDS011;57735;56.264;43.898;2023-05-10T01:57:47;37.38;;;14.40;;
70322;SDS011;57735;56.264;43.898;2023-05-10T02:00:23;39.97;;;13.73;;
70322;SDS011;57735;56.264;43.898;2023-05-10T02:02:54;38.10;;;13.40;;
70322;SDS011;57735;56.264;43.898;2023-05-10T02:05:26;28.40;;;13.18;;
70322;SDS011;57735;56.264;43.898;2023-05-10T02:08:01;47.83;;;15.50;;
70322;SDS011;57735;56.264;43.898;2023-05-10T02:10:36;38.80;;;13.13;;
70322;SDS011;57735;56.264;43.898;2023-05-10T02:13:08;38.65;;;13.55;;
70322;SDS011;57735;56.264;43.898;2023-05-10T02:15:41;35.25;;;13.80;;
70322;SDS011;57735;56.264;43.898;2023-05-10T02:18:13;39.38;;;14.07;;
70322;SDS011;57735;56.264;43.898;2023-05-10T02:20:45;41.10;;;15.18;;
70322;SDS011;57735;56.264;43.898;2023-05-10T02:23:17;40.75;;;14.15;;
70322;SDS011;57735;56.264;43.898;2023-05-10T02:25:51;34.40;;;13.13;;
70322;SDS011;57735;56.264;43.898;2023-05-10T02:28:24;39.03;;;13.80;;
70322;SDS011;57735;56.264;43.898;2023-05-10T02:30:56;42.22;;;13.93;;
70322;SDS011;57735;56.264;43.898;2023-05-10T02:33:27;43.20;;;13.98;;
70322;SDS011;57735;56.264;43.898;2023-05-10T02:36:00;40.95;;;14.48;;
70322;SDS011;57735;56.264;43.898;2023-05-10T02:38:32;32.28;;;13.88;;
70322;SDS011;57735;56.264;43.898;2023-05-10T02:41:05;38.20;;;16.08;;
70322;SDS011;57735;56.264;43.898;2023-05-10T02:43:37;48.40;;;15.90;;
70322;SDS011;57735;56.264;43.898;2023-05-10T02:46:11;48.83;;;15.77;;
70322;SDS011;57735;56.264;43.898;2023-05-10T02:48:41;37.47;;;13.98;;
70322;SDS011;57735;56.264;43.898;2023-05-10T02:51:12;37.10;;;14.20;;
70322;SDS011;57735;56.264;43.898;2023-05-10T02:53:47;45.00;;;14.98;;
70322;SDS011;57735;56.264;43.898;2023-05-10T02:56:25;37.20;;;12.27;;
70322;SDS011;57735;56.264;43.898;2023-05-10T02:59:05;47.13;;;13.23;;
70322;SDS011;57735;56.264;43.898;2023-05-10T03:01:36;38.35;;;12.15;;
70322;SDS011;57735;56.264;43.898;2023-05-10T03:04:07;34.58;;;11.88;;
70322;SDS011;57735;56.264;43.898;2023-05-10T03:06:40;30.30;;;9.93;;
70322;SDS011;57735;56.264;43.898;2023-05-10T03:09:11;29.90;;;9.90;;
70322;SDS011;57735;56.264;43.898;2023-05-10T03:17:35;30.30;;;9.95;;
70322;SDS011;57735;56.264;43.898;2023-05-10T03:20:21;27.55;;;9.55;;
70322;SDS011;57735;56.264;43.898;2023-05-10T03:23:00;27.70;;;9.65;;
70322;SDS011;57735;56.264;43.898;2023-05-10T03:25:35;29.92;;;10.50;;
70322;SDS011;57735;56.264;43.898;2023-05-10T03:28:07;32.88;;;10.27;;
70322;SDS011;57735;56.264;43.898;2023-05-10T03:30:40;24.63;;;10.80;;
70322;SDS011;57735;56.264;43.898;2023-05-10T03:33:12;24.40;;;7.95;;
70322;SDS011;57735;56.264;43.898;2023-05-10T03:35:43;25.38;;;9.18;;
70322;SDS011;57735;56.264;43.898;2023-05-10T03:38:15;29.00;;;8.80;;
70322;SDS011;57735;56.264;43.898;2023-05-10T03:40:46;17.98;;;7.95;;
70322;SDS011;57735;56.264;43.898;2023-05-10T03:43:17;22.33;;;7.40;;
70322;SDS011;57735;56.264;43.898;2023-05-10T03:45:48;24.98;;;7.45;;
70322;SDS011;57735;56.264;43.898;2023-05-10T03:48:19;38.13;;;7.97;;
70322;SDS011;57735;56.264;43.898;2023-05-10T03:50:49;19.08;;;7.55;;
70322;SDS011;57735;56.264;43.898;2023-05-10T03:53:22;32.05;;;7.47;;
70322;SDS011;57735;56.264;43.898;2023-05-10T03:55:53;30.33;;;8.05;;
70322;SDS011;57735;56.264;43.898;2023-05-10T03:58:24;21.98;;;7.53;;
70322;SDS011;57735;56.264;43.898;2023-05-10T04:00:55;17.42;;;6.88;;
70322;SDS011;57735;56.264;43.898;2023-05-10T04:03:26;23.70;;;7.63;;
70322;SDS011;57735;56.264;43.898;2023-05-10T04:06:00;19.02;;;7.03;;
70322;SDS011;57735;56.264;43.898;2023-05-10T04:08:31;16.38;;;6.20;;
70322;SDS011;57735;56.264;43.898;2023-05-10T04:11:06;14.95;;;5.57;;
70322;SDS011;57735;56.264;43.898;2023-05-10T04:13:38;21.10;;;5.18;;
70322;SDS011;57735;56.264;43.898;2023-05-10T04:16:09;23.20;;;5.57;;
70322;SDS011;57735;56.264;43.898;2023-05-10T04:18:39;23.58;;;5.78;;
70322;SDS011;57735;56.264;43.898;2023-05-10T04:21:13;20.23;;;5.75;;
70322;SDS011;57735;56.264;43.898;2023-05-10T04:23:44;22.15;;;6.40;;
70322;SDS011;57735;56.264;43.898;2023-05-10T04:26:14;15.13;;;6.35;;
70322;SDS011;57735;56.264;43.898;2023-05-10T04:28:48;21.60;;;6.25;;
70322;SDS011;57735;56.264;43.898;2023-05-10T04:31:19;15.75;;;6.20;;
70322;SDS011;57735;56.264;43.898;2023-05-10T04:33:50;18.77;;;5.70;;
70322;SDS011;57735;56.264;43.898;2023-05-10T04:36:20;11.68;;;4.47;;
70322;SDS011;57735;56.264;43.898;2023-05-10T04:38:51;23.95;;;4.85;;
70322;SDS011;57735;56.264;43.898;2023-05-10T04:41:22;15.70;;;5.38;;
70322;SDS011;57735;56.264;43.898;2023-05-10T04:43:55;10.85;;;4.13;;
70322;SDS011;57735;56.264;43.898;2023-05-10T04:46:26;15.32;;;4.20;;
70322;SDS011;57735;56.264;43.898;2023-05-10T04:48:57;26.02;;;4.32;;
70322;SDS011;57735;56.264;43.898;2023-05-10T04:51:28;8.10;;;3.67;;
70322;SDS011;57735;56.264;43.898;2023-05-10T04:53:58;15.18;;;4.53;;
70322;SDS011;57735;56.264;43.898;2023-05-10T04:56:29;15.75;;;4.32;;
70322;SDS011;57735;56.264;43.898;2023-05-10T04:59:00;21.38;;;4.30;;
70322;SDS011;57735;56.264;43.898;2023-05-10T05:01:30;26.52;;;5.20;;
70322;SDS011;57735;56.264;43.898;2023-05-10T05:04:01;8.70;;;2.30;;
70322;SDS011;57735;56.264;43.898;2023-05-10T05:06:34;11.80;;;3.15;;
70322;SDS011;57735;56.264;43.898;2023-05-10T05:09:05;9.85;;;2.85;;
70322;SDS011;57735;56.264;43.898;2023-05-10T05:11:38;10.25;;;3.05;;
70322;SDS011;57735;56.264;43.898;2023-05-10T05:14:10;14.70;;;3.95;;
70322;SDS011;57735;56.264;43.898;2023-05-10T05:16:44;15.73;;;3.45;;
70322;SDS011;57735;56.264;43.898;2023-05-10T05:19:14;5.65;;;2.78;;
70322;SDS011;57735;56.264;43.898;2023-05-10T05:21:45;10.65;;;3.22;;
70322;SDS011;57735;56.264;43.898;2023-05-10T05:24:16;7.25;;;3.05;;
70322;SDS011;57735;56.264;43.898;2023-05-10T05:26:49;7.80;;;2.55;;
70322;SDS011;57735;56.264;43.898;2023-05-10T05:29:20;8.63;;;3.22;;
70322;SDS011;57735;56.264;43.898;2023-05-10T05:31:50;6.43;;;2.90;;
70322;SDS011;57735;56.264;43.898;2023-05-10T05:34:21;8.93;;;3.60;;
70322;SDS011;57735;56.264;43.898;2023-05-10T05:36:52;9.85;;;3.45;;
70322;SDS011;57735;56.264;43.898;2023-05-10T05:39:25;16.85;;;3.75;;
70322;SDS011;57735;56.264;43.898;2023-05-10T05:41:58;12.18;;;4.18;;
70322;SDS011;57735;56.264;43.898;2023-05-10T05:44:29;9.18;;;3.67;;
70322;SDS011;57735;56.264;43.898;2023-05-10T05:46:59;6.40;;;2.47;;
70322;SDS011;57735;56.264;43.898;2023-05-10T05:49:30;9.60;;;3.17;;
70322;SDS011;57735;56.264;43.898;2023-05-10T05:52:04;7.00;;;2.83;;
70322;SDS011;57735;56.264;43.898;2023-05-10T05:54:34;10.38;;;3.63;;
70322;SDS011;57735;56.264;43.898;2023-05-10T05:57:05;5.75;;;2.88;;
70322;SDS011;57735;56.264;43.898;2023-05-10T05:59:36;10.52;;;2.60;;
70322;SDS011;57735;56.264;43.898;2023-05-10T06:02:11;7.38;;;2.70;;
70322;SDS011;57735;56.264;43.898;2023-05-10T06:04:42;11.93;;;3.35;;
70322;SDS011;57735;56.264;43.898;2023-05-10T06:07:16;7.25;;;3.03;;
70322;SDS011;57735;56.264;43.898;2023-05-10T06:09:49;6.78;;;2.67;;
70322;SDS011;57735;56.264;43.898;2023-05-10T06:12:22;6.13;;;2.17;;
70322;SDS011;57735;56.264;43.898;2023-05-10T06:14:53;9.98;;;2.65;;
70322;SDS011;57735;56.264;43.898;2023-05-10T06:17:23;8.05;;;3.08;;
70322;SDS011;57735;56.264;43.898;2023-05-10T06:19:57;6.97;;;2.80;;
70322;SDS011;57735;56.264;43.898;2023-05-10T06:22:28;2.45;;;1.70;;
70322;SDS011;57735;56.264;43.898;2023-05-10T06:24:59;5.95;;;2.22;;
70322;SDS011;57735;56.264;43.898;2023-05-10T06:27:29;5.40;;;2.35;;
70322;SDS011;57735;56.264;43.898;2023-05-10T06:30:00;4.38;;;1.98;;
70322;SDS011;57735;56.264;43.898;2023-05-10T06:32:34;5.95;;;1.63;;
70322;SDS011;57735;56.264;43.898;2023-05-10T06:35:05;2.72;;;1.63;;
70322;SDS011;57735;56.264;43.898;2023-05-10T06:37:36;6.68;;;1.60;;
70322;SDS011;57735;56.264;43.898;2023-05-10T06:40:07;4.72;;;1.30;;
70322;SDS011;57735;56.264;43.898;2023-05-10T06:42:39;4.28;;;1.38;;
70322;SDS011;57735;56.264;43.898;2023-05-10T06:45:10;8.77;;;1.88;;
70322;SDS011;57735;56.264;43.898;2023-05-10T06:47:41;13.85;;;1.80;;
70322;SDS011;57735;56.264;43.898;2023-05-10T06:50:12;6.22;;;1.48;;
70322;SDS011;57735;56.264;43.898;2023-05-10T06:52:43;3.72;;;1.58;;
70322;SDS011;57735;56.264;43.898;2023-05-10T06:55:13;3.35;;;1.50;;
70322;SDS011;57735;56.264;43.898;2023-05-10T06:57:44;3.58;;;1.48;;
70322;SDS011;57735;56.264;43.898;2023-05-10T07:00:15;7.80;;;1.70;;
70322;SDS011;57735;56.264;43.898;2023-05-10T07:02:46;6.90;;;1.75;;
70322;SDS011;57735;56.264;43.898;2023-05-10T07:05:17;4.55;;;1.55;;
70322;SDS011;57735;56.264;43.898;2023-05-10T07:07:49;8.57;;;1.50;;
70322;SDS011;57735;56.264;43.898;2023-05-10T07:10:20;4.88;;;1.50;;
70322;SDS011;57735;56.264;43.898;2023-05-10T07:12:50;1.75;;;1.00;;
70322;SDS011;57735;56.264;43.898;2023-05-10T07:15:24;7.95;;;1.30;;
70322;SDS011;57735;56.264;43.898;2023-05-10T07:17:55;5.03;;;1.38;;
70322;SDS011;57735;56.264;43.898;2023-05-10T07:20:28;4.07;;;1.40;;
70322;SDS011;57735;56.264;43.898;2023-05-10T07:22:58;3.15;;;1.40;;
70322;SDS011;57735;56.264;43.898;2023-05-10T07:25:29;3.67;;;1.30;;
70322;SDS011;57735;56.264;43.898;2023-05-10T07:28:00;3.70;;;1.20;;
70322;SDS011;57735;56.264;43.898;2023-05-10T07:30:31;2.92;;;1.30;;
70322;SDS011;57735;56.264;43.898;2023-05-10T07:33:05;6.28;;;1.35;;
70322;SDS011;57735;56.264;43.898;2023-05-10T07:35:35;2.20;;;1.40;;
70322;SDS011;57735;56.264;43.898;2023-05-10T07:38:06;7.50;;;1.40;;
70322;SDS011;57735;56.264;43.898;2023-05-10T07:40:37;3.03;;;1.25;;
70322;SDS011;57735;56.264;43.898;2023-05-10T07:43:09;2.65;;;1.30;;
70322;SDS011;57735;56.264;43.898;2023-05-10T07:45:40;4.03;;;1.52;;
70322;SDS011;57735;56.264;43.898;2023-05-10T07:48:10;3.65;;;1.75;;
70322;SDS011;57735;56.264;43.898;2023-05-10T07:50:44;5.38;;;1.70;;
70322;SDS011;57735;56.264;43.898;2023-05-10T07:53:17;4.18;;;1.50;;
70322;SDS011;57735;56.264;43.898;2023-05-10T07:55:57;5.93;;;1.67;;
70322;SDS011;57735;56.264;43.898;2023-05-10T07:58:28;3.08;;;1.45;;
70322;SDS011;57735;56.264;43.898;2023-05-10T08:01:01;5.95;;;2.05;;
70322;SDS011;57735;56.264;43.898;2023-05-10T08:03:32;3.67;;;1.73;;
70322;SDS011;57735;56.264;43.898;2023-05-10T08:06:03;8.68;;;1.60;;
70322;SDS011;57735;56.264;43.898;2023-05-10T08:08:34;2.10;;;1.30;;
70322;SDS011;57735;56.264;43.898;2023-05-10T08:11:05;5.80;;;2.30;;
70322;SDS011;57735;56.264;43.898;2023-05-10T08:13:35;4.30;;;2.00;;
70322;SDS011;57735;56.264;43.898;2023-05-10T08:16:09;5.85;;;1.50;;
70322;SDS011;57735;56.264;43.898;2023-05-10T08:18:39;5.15;;;1.80;;
70322;SDS011;57735;56.264;43.898;2023-05-10T08:21:10;6.43;;;2.03;;
70322;SDS011;57735;56.264;43.898;2023-05-10T08:23:41;3.13;;;1.52;;
70322;SDS011;57735;56.264;43.898;2023-05-10T08:26:13;3.33;;;1.45;;
70322;SDS011;57735;56.264;43.898;2023-05-10T08:28:44;5.75;;;1.42;;
70322;SDS011;57735;56.264;43.898;2023-05-10T08:31:17;3.20;;;1.75;;
70322;SDS011;57735;56.264;43.898;2023-05-10T08:33:48;2.03;;;1.33;;
70322;SDS011;57735;56.264;43.898;2023-05-10T08:36:21;1.63;;;1.30;;
70322;SDS011;57735;56.264;43.898;2023-05-10T08:38:54;6.18;;;1.85;;
70322;SDS011;57735;56.264;43.898;2023-05-10T08:41:25;3.95;;;1.60;;
70322;SDS011;57735;56.264;43.898;2023-05-10T08:43:56;3.38;;;1.50;;
70322;SDS011;57735;56.264;43.898;2023-05-10T08:46:27;19.95;;;2.13;;
70322;SDS011;57735;56.264;43.898;2023-05-10T08:48:58;1.88;;;1.20;;
70322;SDS011;57735;56.264;43.898;2023-05-10T08:51:33;3.15;;;1.55;;
70322;SDS011;57735;56.264;43.898;2023-05-10T08:54:10;3.55;;;1.55;;
70322;SDS011;57735;56.264;43.898;2023-05-10T08:56:41;4.53;;;1.60;;
70322;SDS011;57735;56.264;43.898;2023-05-10T08:59:19;1.92;;;1.30;;
70322;SDS011;57735;56.264;43.898;2023-05-10T09:01:51;6.53;;;1.52;;
70322;SDS011;57735;56.264;43.898;2023-05-10T09:04:24;6.78;;;1.50;;
70322;SDS011;57735;56.264;43.898;2023-05-10T09:06:55;3.28;;;1.40;;
70322;SDS011;57735;56.264;43.898;2023-05-10T09:09:26;1.70;;;1.20;;
70322;SDS011;57735;56.264;43.898;2023-05-10T09:11:58;4.43;;;1.45;;
70322;SDS011;57735;56.264;43.898;2023-05-10T09:14:28;3.38;;;1.50;;
70322;SDS011;57735;56.264;43.898;2023-05-10T09:17:03;7.97;;;1.50;;
70322;SDS011;57735;56.264;43.898;2023-05-10T09:19:35;4.43;;;1.23;;
70322;SDS011;57735;56.264;43.898;2023-05-10T09:22:05;6.72;;;1.70;;
70322;SDS011;57735;56.264;43.898;2023-05-10T09:24:36;1.48;;;1.17;;
70322;SDS011;57735;56.264;43.898;2023-05-10T09:27:12;4.90;;;1.60;;
70322;SDS011;57735;56.264;43.898;2023-05-10T09:29:43;2.40;;;1.40;;
70322;SDS011;57735;56.264;43.898;2023-05-10T09:32:14;7.13;;;1.65;;
70322;SDS011;57735;56.264;43.898;2023-05-10T09:34:45;2.22;;;1.50;;
70322;SDS011;57735;56.264;43.898;2023-05-10T09:37:16;3.97;;;1.45;;
70322;SDS011;57735;56.264;43.898;2023-05-10T09:39:46;4.55;;;1.67;;
70322;SDS011;57735;56.264;43.898;2023-05-10T09:42:19;6.63;;;1.70;;
70322;SDS011;57735;56.264;43.898;2023-05-10T09:44:50;3.20;;;1.63;;
70322;SDS011;57735;56.264;43.898;2023-05-10T09:47:21;4.03;;;1.70;;
70322;SDS011;57735;56.264;43.898;2023-05-10T09:49:52;3.03;;;1.40;;
70322;SDS011;57735;56.264;43.898;2023-05-10T09:52:23;2.65;;;1.20;;
70322;SDS011;57735;56.264;43.898;2023-05-10T09:54:54;2.30;;;1.40;;
70322;SDS011;57735;56.264;43.898;2023-05-10T09:57:25;6.82;;;1.42;;
70322;SDS011;57735;56.264;43.898;2023-05-10T09:59:56;3.85;;;1.70;;
70322;SDS011;57735;56.264;43.898;2023-05-10T10:02:30;4.13;;;2.13;;
70322;SDS011;57735;56.264;43.898;2023-05-10T10:05:02;6.50;;;1.70;;
70322;SDS011;57735;56.264;43.898;2023-05-10T10:07:34;3.00;;;1.70;;
70322;SDS011;57735;56.264;43.898;2023-05-10T10:10:06;2.10;;;1.55;;
70322;SDS011;57735;56.264;43.898;2023-05-10T10:12:41;4.57;;;1.70;;
70322;SDS011;57735;56.264;43.898;2023-05-10T10:15:12;6.40;;;1.75;;
70322;SDS011;57735;56.264;43.898;2023-05-10T10:17:43;4.13;;;1.90;;
70322;SDS011;57735;56.264;43.898;2023-05-10T10:20:15;3.15;;;1.25;;
70322;SDS011;57735;56.264;43.898;2023-05-10T10:22:47;6.35;;;1.60;;
70322;SDS011;57735;56.264;43.898;2023-05-10T10:25:19;3.58;;;1.10;;
70322;SDS011;57735;56.264;43.898;2023-05-10T10:30:28;3.67;;;1.60;;
70322;SDS011;57735;56.264;43.898;2023-05-10T10:35:43;2.75;;;2.00;;
70322;SDS011;57735;56.264;43.898;2023-05-10T10:38:16;3.28;;;1.50;;
70322;SDS011;57735;56.264;43.898;2023-05-10T10:40:47;3.42;;;1.40;;
70322;SDS011;57735;56.264;43.898;2023-05-10T10:43:25;2.60;;;1.63;;
70322;SDS011;57735;56.264;43.898;2023-05-10T10:46:15;2.42;;;1.60;;
70322;SDS011;57735;56.264;43.898;2023-05-10T10:48:48;3.80;;;1.70;;
70322;SDS011;57735;56.264;43.898;2023-05-10T10:52:12;5.00;;;1.50;;
70322;SDS011;57735;56.264;43.898;2023-05-10T10:54:54;10.38;;;2.72;;
70322;SDS011;57735;56.264;43.898;2023-05-10T11:00:20;4.88;;;1.50;;
70322;SDS011;57735;56.264;43.898;2023-05-10T11:02:55;4.32;;;1.60;;
70322;SDS011;57735;56.264;43.898;2023-05-10T11:05:43;1.83;;;1.10;;
70322;SDS011;57735;56.264;43.898;2023-05-10T11:08:31;3.25;;;1.30;;
70322;SDS011;57735;56.264;43.898;2023-05-10T11:11:04;9.23;;;1.40;;
70322;SDS011;57735;56.264;43.898;2023-05-10T11:13:42;1.58;;;1.48;;
70322;SDS011;57735;56.264;43.898;2023-05-10T11:16:16;1.60;;;1.42;;
70322;SDS011;57735;56.264;43.898;2023-05-10T11:19:02;2.50;;;1.20;;
70322;SDS011;57735;56.264;43.898;2023-05-10T11:24:35;2.05;;;1.38;;
70322;SDS011;57735;56.264;43.898;2023-05-10T11:27:06;2.50;;;1.30;;
70322;SDS011;57735;56.264;43.898;2023-05-10T11:29:38;1.98;;;1.52;;
70322;SDS011;57735;56.264;43.898;2023-05-10T11:32:12;2.30;;;1.42;;
70322;SDS011;57735;56.264;43.898;2023-05-10T11:35:11;2.67;;;1.40;;
70322;SDS011;57735;56.264;43.898;2023-05-10T11:37:42;1.52;;;1.25;;
70322;SDS011;57735;56.264;43.898;2023-05-10T11:40:14;3.75;;;1.50;;
70322;SDS011;57735;56.264;43.898;2023-05-10T11:42:44;2.42;;;1.15;;
70322;SDS011;57735;56.264;43.898;2023-05-10T11:45:17;2.03;;;1.20;;
70322;SDS011;57735;56.264;43.898;2023-05-10T11:47:48;2.13;;;1.40;;
70322;SDS011;57735;56.264;43.898;2023-05-10T11:50:20;4.85;;;1.63;;
70322;SDS011;57735;56.264;43.898;2023-05-10T11:52:54;5.30;;;1.50;;
70322;SDS011;57735;56.264;43.898;2023-05-10T11:55:28;3.05;;;1.50;;
70322;SDS011;57735;56.264;43.898;2023-05-10T11:58:00;2.65;;;1.20;;
70322;SDS011;57735;56.264;43.898;2023-05-10T12:00:32;4.80;;;1.40;;
70322;SDS011;57735;56.264;43.898;2023-05-10T12:03:04;5.70;;;1.70;;
70322;SDS011;57735;56.264;43.898;2023-05-10T12:05:36;4.68;;;1.60;;
70322;SDS011;57735;56.264;43.898;2023-05-10T12:08:10;4.95;;;1.70;;
70322;SDS011;57735;56.264;43.898;2023-05-10T12:10:45;4.78;;;1.73;;
70322;SDS011;57735;56.264;43.898;2023-05-10T12:13:16;3.80;;;1.65;;
70322;SDS011;57735;56.264;43.898;2023-05-10T12:15:47;7.25;;;1.38;;
70322;SDS011;57735;56.264;43.898;2023-05-10T12:18:22;3.83;;;1.58;;
70322;SDS011;57735;56.264;43.898;2023-05-10T12:20:54;2.55;;;1.33;;
70322;SDS011;57735;56.264;43.898;2023-05-10T12:23:33;11.05;;;1.60;;
70322;SDS011;57735;56.264;43.898;2023-05-10T12:26:10;2.83;;;1.23;;
70322;SDS011;57735;56.264;43.898;2023-05-10T12:28:41;2.13;;;1.08;;
70322;SDS011;57735;56.264;43.898;2023-05-10T12:31:12;2.50;;;1.40;;
70322;SDS011;57735;56.264;43.898;2023-05-10T12:33:43;5.93;;;1.52;;
70322;SDS011;57735;56.264;43.898;2023-05-10T12:36:15;4.88;;;1.40;;
70322;SDS011;57735;56.264;43.898;2023-05-10T12:38:48;5.00;;;1.55;;
70322;SDS011;57735;56.264;43.898;2023-05-10T12:41:18;2.75;;;1.63;;
70322;SDS011;57735;56.264;43.898;2023-05-10T12:43:50;4.10;;;1.60;;
70322;SDS011;57735;56.264;43.898;2023-05-10T12:46:21;4.30;;;1.33;;
70322;SDS011;57735;56.264;43.898;2023-05-10T12:48:55;4.43;;;1.45;;
70322;SDS011;57735;56.264;43.898;2023-05-10T12:51:28;1.55;;;1.13;;
70322;SDS011;57735;56.264;43.898;2023-05-10T12:53:59;2.30;;;1.15;;
70322;SDS011;57735;56.264;43.898;2023-05-10T12:56:33;7.65;;;1.48;;
70322;SDS011;57735;56.264;43.898;2023-05-10T12:59:03;4.32;;;1.30;;
70322;SDS011;57735;56.264;43.898;2023-05-10T13:01:34;3.75;;;1.30;;
70322;SDS011;57735;56.264;43.898;2023-05-10T13:04:08;9.60;;;1.43;;
70322;SDS011;57735;56.264;43.898;2023-05-10T13:06:39;4.75;;;1.70;;
70322;SDS011;57735;56.264;43.898;2023-05-10T13:09:10;3.97;;;1.20;;
70322;SDS011;57735;56.264;43.898;2023-05-10T13:11:43;6.03;;;1.80;;
70322;SDS011;57735;56.264;43.898;2023-05-10T13:14:14;2.42;;;1.30;;
70322;SDS011;57735;56.264;43.898;2023-05-10T13:16:44;6.30;;;1.60;;
70322;SDS011;57735;56.264;43.898;2023-05-10T13:19:15;18.45;;;2.00;;
70322;SDS011;57735;56.264;43.898;2023-05-10T13:21:46;3.25;;;1.48;;
70322;SDS011;57735;56.264;43.898;2023-05-10T13:24:18;5.28;;;1.38;;
70322;SDS011;57735;56.264;43.898;2023-05-10T13:26:49;3.88;;;1.48;;
70322;SDS011;57735;56.264;43.898;2023-05-10T13:29:20;4.43;;;1.40;;
70322;SDS011;57735;56.264;43.898;2023-05-10T13:31:52;1.40;;;1.20;;
70322;SDS011;57735;56.264;43.898;2023-05-10T13:34:23;2.88;;;1.70;;
70322;SDS011;57735;56.264;43.898;2023-05-10T13:36:54;3.47;;;1.67;;
70322;SDS011;57735;56.264;43.898;2023-05-10T13:39:26;2.28;;;1.40;;
70322;SDS011;57735;56.264;43.898;2023-05-10T13:41:57;4.05;;;1.63;;
70322;SDS011;57735;56.264;43.898;2023-05-10T13:44:27;16.25;;;2.47;;
70322;SDS011;57735;56.264;43.898;2023-05-10T13:46:58;5.68;;;1.60;;
70322;SDS011;57735;56.264;43.898;2023-05-10T13:49:29;2.60;;;1.40;;
70322;SDS011;57735;56.264;43.898;2023-05-10T13:52:00;3.58;;;2.00;;
70322;SDS011;57735;56.264;43.898;2023-05-10T13:54:37;3.75;;;1.30;;
70322;SDS011;57735;56.264;43.898;2023-05-10T13:57:08;7.32;;;1.55;;
70322;SDS011;57735;56.264;43.898;2023-05-10T13:59:40;3.15;;;1.27;;
70322;SDS011;57735;56.264;43.898;2023-05-10T14:02:11;4.15;;;1.40;;
70322;SDS011;57735;56.264;43.898;2023-05-10T14:04:43;3.90;;;1.65;;
70322;SDS011;57735;56.264;43.898;2023-05-10T14:07:14;11.43;;;1.63;;
70322;SDS011;57735;56.264;43.898;2023-05-10T14:09:45;4.78;;;1.67;;
70322;SDS011;57735;56.264;43.898;2023-05-10T14:12:16;11.50;;;2.25;;
70322;SDS011;57735;56.264;43.898;2023-05-10T14:14:47;21.05;;;2.67;;
70322;SDS011;57735;56.264;43.898;2023-05-10T14:17:18;3.95;;;1.55;;
70322;SDS011;57735;56.264;43.898;2023-05-10T14:19:49;2.67;;;1.35;;
70322;SDS011;57735;56.264;43.898;2023-05-10T14:22:20;10.13;;;1.95;;
70322;SDS011;57735;56.264;43.898;2023-05-10T14:24:54;4.20;;;1.85;;
70322;SDS011;57735;56.264;43.898;2023-05-10T14:27:24;5.82;;;1.33;;
70322;SDS011;57735;56.264;43.898;2023-05-10T14:29:55;2.63;;;1.27;;
70322;SDS011;57735;56.264;43.898;2023-05-10T14:32:26;2.88;;;1.40;;
70322;SDS011;57735;56.264;43.898;2023-05-10T14:34:57;3.97;;;1.30;;
70322;SDS011;57735;56.264;43.898;2023-05-10T14:37:28;3.67;;;1.40;;
70322;SDS011;57735;56.264;43.898;2023-05-10T14:39:59;2.00;;;1.23;;
70322;SDS011;57735;56.264;43.898;2023-05-10T14:45:04;1.80;;;1.13;;
70322;SDS011;57735;56.264;43.898;2023-05-10T14:47:35;4.22;;;1.20;;
70322;SDS011;57735;56.264;43.898;2023-05-10T14:50:09;2.40;;;1.20;;
70322;SDS011;57735;56.264;43.898;2023-05-10T14:52:42;2.75;;;1.40;;
70322;SDS011;57735;56.264;43.898;2023-05-10T14:55:12;3.70;;;1.40;;
70322;SDS011;57735;56.264;43.898;2023-05-10T14:57:45;2.40;;;1.35;;
70322;SDS011;57735;56.264;43.898;2023-05-10T15:02:50;5.57;;;1.45;;
70322;SDS011;57735;56.264;43.898;2023-05-10T15:05:21;4.47;;;1.60;;
70322;SDS011;57735;56.264;43.898;2023-05-10T15:07:55;3.80;;;1.40;;
70322;SDS011;57735;56.264;43.898;2023-05-10T15:10:26;3.90;;;1.55;;
70322;SDS011;57735;56.264;43.898;2023-05-10T15:13:00;2.85;;;1.80;;
70322;SDS011;57735;56.264;43.898;2023-05-10T15:15:31;3.60;;;1.55;;
70322;SDS011;57735;56.264;43.898;2023-05-10T15:18:02;3.35;;;1.60;;
70322;SDS011;57735;56.264;43.898;2023-05-10T15:20:32;7.57;;;1.80;;
70322;SDS011;57735;56.264;43.898;2023-05-10T15:23:08;6.43;;;1.58;;
70322;SDS011;57735;56.264;43.898;2023-05-10T15:25:39;3.85;;;1.50;;
70322;SDS011;57735;56.264;43.898;2023-05-10T15:28:10;4.03;;;1.55;;
70322;SDS011;57735;56.264;43.898;2023-05-10T15:30:43;7.65;;;2.17;;
70322;SDS011;57735;56.264;43.898;2023-05-10T15:33:16;4.38;;;1.75;;
70322;SDS011;57735;56.264;43.898;2023-05-10T15:35:47;3.75;;;1.80;;
70322;SDS011;57735;56.264;43.898;2023-05-10T15:38:18;4.30;;;1.80;;